sensor_id;sensor_type;location;lat;lon;timestamp;temperature;humidity
5461;DHT22;2753;49.196;8.286;2023-12-07T00:01:39;3.70;99.90
5461;DHT22;2753;49.196;8.286;2023-12-07T00:04:05;3.70;99.90
5461;DHT22;2753;49.196;8.286;2023-12-07T00:06:30;3.70;99.90
5461;DHT22;2753;49.196;8.286;2023-12-07T00:08:56;3.70;99.90
5461;DHT22;2753;49.196;8.286;2023-12-07T00:11:23;3.70;99.90
5461;DHT22;2753;49.196;8.286;2023-12-07T00:13:49;3.70;99.90
5461;DHT22;2753;49.196;8.286;2023-12-07T00:16:15;3.70;99.90
5461;DHT22;2753;49.196;8.286;2023-12-07T00:18:40;3.70;99.90
5461;DHT22;2753;49.196;8.286;2023-12-07T00:21:08;3.70;99.90
5461;DHT22;2753;49.196;8.286;2023-12-07T00:23:34;3.70;99.90
5461;DHT22;2753;49.196;8.286;2023-12-07T00:26:00;3.70;99.90
5461;DHT22;2753;49.196;8.286;2023-12-07T00:28:25;3.80;99.90
5461;DHT22;2753;49.196;8.286;2023-12-07T00:30:52;3.80;99.90
5461;DHT22;2753;49.196;8.286;2023-12-07T00:33:17;3.80;99.90
5461;DHT22;2753;49.196;8.286;2023-12-07T00:35:43;3.80;99.90
5461;DHT22;2753;49.196;8.286;2023-12-07T00:38:09;3.70;99.90
5461;DHT22;2753;49.196;8.286;2023-12-07T00:40:37;3.60;99.90
5461;DHT22;2753;49.196;8.286;2023-12-07T00:43:05;3.60;99.90
5461;DHT22;2753;49.196;8.286;2023-12-07T00:45:31;3.60;99.90
5461;DHT22;2753;49.196;8.286;2023-12-07T00:47:57;3.50;99.90
5461;DHT22;2753;49.196;8.286;2023-12-07T00:50:22;3.50;99.90
5461;DHT22;2753;49.196;8.286;2023-12-07T00:52:48;3.50;99.90
5461;DHT22;2753;49.196;8.286;2023-12-07T00:55:14;3.40;99.90
5461;DHT22;2753;49.196;8.286;2023-12-07T00:57:40;3.40;99.90
5461;DHT22;2753;49.196;8.286;2023-12-07T01:00:07;3.30;99.90
5461;DHT22;2753;49.196;8.286;2023-12-07T01:02:33;3.40;99.90
5461;DHT22;2753;49.196;8.286;2023-12-07T01:04:59;3.40;99.90
5461;DHT22;2753;49.196;8.286;2023-12-07T01:07:29;3.40;99.90
5461;DHT22;2753;49.196;8.286;2023-12-07T01:09:54;3.40;99.90
5461;DHT22;2753;49.196;8.286;2023-12-07T01:12:20;3.40;99.90
5461;DHT22;2753;49.196;8.286;2023-12-07T01:14:46;3.40;99.90
5461;DHT22;2753;49.196;8.286;2023-12-07T01:17:11;3.40;99.90
5461;DHT22;2753;49.196;8.286;2023-12-07T01:19:37;3.30;99.90
5461;DHT22;2753;49.196;8.286;2023-12-07T01:22:03;3.20;99.90
5461;DHT22;2753;49.196;8.286;2023-12-07T01:24:28;3.10;99.90
5461;DHT22;2753;49.196;8.286;2023-12-07T01:26:54;3.20;99.90
5461;DHT22;2753;49.196;8.286;2023-12-07T01:29:20;3.20;99.90
5461;DHT22;2753;49.196;8.286;2023-12-07T01:31:46;3.20;99.90
5461;DHT22;2753;49.196;8.286;2023-12-07T01:34:12;3.20;99.90
5461;DHT22;2753;49.196;8.286;2023-12-07T01:36:37;3.20;99.90
5461;DHT22;2753;49.196;8.286;2023-12-07T01:39:03;3.20;99.90
5461;DHT22;2753;49.196;8.286;2023-12-07T01:41:30;3.10;99.90
5461;DHT22;2753;49.196;8.286;2023-12-07T01:43:55;3.10;99.90
5461;DHT22;2753;49.196;8.286;2023-12-07T01:46:21;3.00;99.90
5461;DHT22;2753;49.196;8.286;2023-12-07T01:48:47;3.00;99.90
5461;DHT22;2753;49.196;8.286;2023-12-07T01:51:15;3.00;99.90
5461;DHT22;2753;49.196;8.286;2023-12-07T01:53:42;3.00;99.90
5461;DHT22;2753;49.196;8.286;2023-12-07T01:56:08;3.00;99.90
5461;DHT22;2753;49.196;8.286;2023-12-07T01:58:36;2.90;99.90
5461;DHT22;2753;49.196;8.286;2023-12-07T02:01:02;2.90;99.90
5461;DHT22;2753;49.196;8.286;2023-12-07T02:03:30;2.90;99.90
5461;DHT22;2753;49.196;8.286;2023-12-07T02:05:58;3.00;99.90
5461;DHT22;2753;49.196;8.286;2023-12-07T02:08:24;3.00;99.90
5461;DHT22;2753;49.196;8.286;2023-12-07T02:10:50;2.90;99.90
5461;DHT22;2753;49.196;8.286;2023-12-07T02:13:16;2.90;99.90
5461;DHT22;2753;49.196;8.286;2023-12-07T02:15:43;2.90;99.90
5461;DHT22;2753;49.196;8.286;2023-12-07T02:23:40;2.90;99.90
5461;DHT22;2753;49.196;8.286;2023-12-07T02:26:07;2.90;99.90
5461;DHT22;2753;49.196;8.286;2023-12-07T02:28:34;2.90;99.90
5461;DHT22;2753;49.196;8.286;2023-12-07T02:30:59;2.90;99.90
5461;DHT22;2753;49.196;8.286;2023-12-07T02:33:25;2.80;99.90
5461;DHT22;2753;49.196;8.286;2023-12-07T02:35:51;2.80;99.90
5461;DHT22;2753;49.196;8.286;2023-12-07T02:38:17;2.80;99.90
5461;DHT22;2753;49.196;8.286;2023-12-07T02:40:44;2.70;99.90
5461;DHT22;2753;49.196;8.286;2023-12-07T02:43:14;2.70;99.90
5461;DHT22;2753;49.196;8.286;2023-12-07T02:45:40;2.80;99.90
5461;DHT22;2753;49.196;8.286;2023-12-07T02:48:09;2.80;99.90
5461;DHT22;2753;49.196;8.286;2023-12-07T02:50:35;2.90;99.90
5461;DHT22;2753;49.196;8.286;2023-12-07T02:53:00;2.80;99.90
5461;DHT22;2753;49.196;8.286;2023-12-07T02:55:26;2.80;99.90
5461;DHT22;2753;49.196;8.286;2023-12-07T02:57:55;2.90;99.90
5461;DHT22;2753;49.196;8.286;2023-12-07T03:00:21;2.80;99.90
5461;DHT22;2753;49.196;8.286;2023-12-07T03:02:47;2.70;99.90
5461;DHT22;2753;49.196;8.286;2023-12-07T03:05:13;2.70;99.90
5461;DHT22;2753;49.196;8.286;2023-12-07T03:07:39;2.60;99.90
5461;DHT22;2753;49.196;8.286;2023-12-07T03:10:05;2.60;99.90
5461;DHT22;2753;49.196;8.286;2023-12-07T03:12:31;2.60;99.90
5461;DHT22;2753;49.196;8.286;2023-12-07T03:14:56;2.60;99.90
5461;DHT22;2753;49.196;8.286;2023-12-07T03:17:22;2.70;99.90
5461;DHT22;2753;49.196;8.286;2023-12-07T03:19:48;2.70;99.90
5461;DHT22;2753;49.196;8.286;2023-12-07T03:22:14;2.70;99.90
5461;DHT22;2753;49.196;8.286;2023-12-07T03:24:43;2.80;99.90
5461;DHT22;2753;49.196;8.286;2023-12-07T03:27:09;2.70;99.90
5461;DHT22;2753;49.196;8.286;2023-12-07T03:29:34;2.70;99.90
5461;DHT22;2753;49.196;8.286;2023-12-07T03:32:00;2.70;99.90
5461;DHT22;2753;49.196;8.286;2023-12-07T03:34:26;2.70;99.90
5461;DHT22;2753;49.196;8.286;2023-12-07T03:36:52;2.70;99.90
5461;DHT22;2753;49.196;8.286;2023-12-07T03:39:18;2.70;99.90
5461;DHT22;2753;49.196;8.286;2023-12-07T03:41:50;2.70;99.90
5461;DHT22;2753;49.196;8.286;2023-12-07T03:44:16;2.70;99.90
5461;DHT22;2753;49.196;8.286;2023-12-07T03:46:42;2.70;99.90
5461;DHT22;2753;49.196;8.286;2023-12-07T03:49:07;2.70;99.90
5461;DHT22;2753;49.196;8.286;2023-12-07T03:51:33;2.60;99.90
5461;DHT22;2753;49.196;8.286;2023-12-07T03:54:02;2.60;99.90
5461;DHT22;2753;49.196;8.286;2023-12-07T03:56:29;2.60;99.90
5461;DHT22;2753;49.196;8.286;2023-12-07T03:58:56;2.50;99.90
5461;DHT22;2753;49.196;8.286;2023-12-07T04:01:26;2.50;99.90
5461;DHT22;2753;49.196;8.286;2023-12-07T04:03:56;2.50;99.90
5461;DHT22;2753;49.196;8.286;2023-12-07T04:06:23;2.50;99.90
5461;DHT22;2753;49.196;8.286;2023-12-07T04:08:49;2.50;99.90
5461;DHT22;2753;49.196;8.286;2023-12-07T04:11:15;2.60;99.90
5461;DHT22;2753;49.196;8.286;2023-12-07T04:13:42;2.50;99.90
5461;DHT22;2753;49.196;8.286;2023-12-07T04:16:08;2.50;99.90
5461;DHT22;2753;49.196;8.286;2023-12-07T04:18:34;2.50;99.90
5461;DHT22;2753;49.196;8.286;2023-12-07T04:21:00;2.50;99.90
5461;DHT22;2753;49.196;8.286;2023-12-07T04:23:26;2.50;99.90
5461;DHT22;2753;49.196;8.286;2023-12-07T04:25:51;2.50;99.90
5461;DHT22;2753;49.196;8.286;2023-12-07T04:28:17;2.50;99.90
5461;DHT22;2753;49.196;8.286;2023-12-07T04:30:43;2.50;99.90
5461;DHT22;2753;49.196;8.286;2023-12-07T04:33:09;2.50;99.90
5461;DHT22;2753;49.196;8.286;2023-12-07T04:35:35;2.40;99.90
5461;DHT22;2753;49.196;8.286;2023-12-07T04:38:00;2.40;99.90
5461;DHT22;2753;49.196;8.286;2023-12-07T04:40:26;2.40;99.90
5461;DHT22;2753;49.196;8.286;2023-12-07T04:42:52;2.50;99.90
5461;DHT22;2753;49.196;8.286;2023-12-07T04:45:21;2.40;99.90
5461;DHT22;2753;49.196;8.286;2023-12-07T04:47:46;2.40;99.90
5461;DHT22;2753;49.196;8.286;2023-12-07T04:50:12;2.40;99.90
5461;DHT22;2753;49.196;8.286;2023-12-07T04:52:38;2.40;99.90
5461;DHT22;2753;49.196;8.286;2023-12-07T04:55:05;2.30;99.90
5461;DHT22;2753;49.196;8.286;2023-12-07T04:57:36;2.40;99.90
5461;DHT22;2753;49.196;8.286;2023-12-07T05:00:03;2.30;99.90
5461;DHT22;2753;49.196;8.286;2023-12-07T05:02:32;2.30;99.90
5461;DHT22;2753;49.196;8.286;2023-12-07T05:04:57;2.30;99.90
5461;DHT22;2753;49.196;8.286;2023-12-07T05:07:23;2.30;99.90
5461;DHT22;2753;49.196;8.286;2023-12-07T05:09:49;2.30;99.90
5461;DHT22;2753;49.196;8.286;2023-12-07T05:12:16;2.20;99.90
5461;DHT22;2753;49.196;8.286;2023-12-07T05:14:42;2.20;99.90
5461;DHT22;2753;49.196;8.286;2023-12-07T05:17:08;2.10;99.90
5461;DHT22;2753;49.196;8.286;2023-12-07T05:19:33;2.10;99.90
5461;DHT22;2753;49.196;8.286;2023-12-07T05:21:59;2.10;99.90
5461;DHT22;2753;49.196;8.286;2023-12-07T05:24:25;2.10;99.90
5461;DHT22;2753;49.196;8.286;2023-12-07T05:26:51;2.10;99.90
5461;DHT22;2753;49.196;8.286;2023-12-07T05:29:17;2.20;99.90
5461;DHT22;2753;49.196;8.286;2023-12-07T05:31:43;2.10;99.90
5461;DHT22;2753;49.196;8.286;2023-12-07T05:34:09;2.20;99.90
5461;DHT22;2753;49.196;8.286;2023-12-07T05:36:35;2.10;99.90
5461;DHT22;2753;49.196;8.286;2023-12-07T05:39:01;2.10;99.90
5461;DHT22;2753;49.196;8.286;2023-12-07T05:41:26;2.00;99.90
5461;DHT22;2753;49.196;8.286;2023-12-07T05:43:55;2.00;99.90
5461;DHT22;2753;49.196;8.286;2023-12-07T05:46:21;2.00;99.90
5461;DHT22;2753;49.196;8.286;2023-12-07T05:48:47;2.00;99.90
5461;DHT22;2753;49.196;8.286;2023-12-07T05:51:17;2.00;99.90
5461;DHT22;2753;49.196;8.286;2023-12-07T05:53:43;1.90;99.90
5461;DHT22;2753;49.196;8.286;2023-12-07T05:56:09;1.90;99.90
5461;DHT22;2753;49.196;8.286;2023-12-07T05:58:35;1.90;99.90
5461;DHT22;2753;49.196;8.286;2023-12-07T06:01:01;1.90;99.90
5461;DHT22;2753;49.196;8.286;2023-12-07T06:03:31;1.80;99.90
5461;DHT22;2753;49.196;8.286;2023-12-07T06:05:57;1.80;99.90
5461;DHT22;2753;49.196;8.286;2023-12-07T06:08:23;1.80;99.90
5461;DHT22;2753;49.196;8.286;2023-12-07T06:10:49;1.80;99.90
5461;DHT22;2753;49.196;8.286;2023-12-07T06:13:14;1.70;99.90
5461;DHT22;2753;49.196;8.286;2023-12-07T06:15:40;1.70;99.90
5461;DHT22;2753;49.196;8.286;2023-12-07T06:18:06;1.60;99.90
5461;DHT22;2753;49.196;8.286;2023-12-07T06:20:32;1.60;99.90
5461;DHT22;2753;49.196;8.286;2023-12-07T06:22:59;1.60;99.90
5461;DHT22;2753;49.196;8.286;2023-12-07T06:25:25;1.60;99.90
5461;DHT22;2753;49.196;8.286;2023-12-07T06:27:50;1.60;99.90
5461;DHT22;2753;49.196;8.286;2023-12-07T06:30:16;1.60;99.90
5461;DHT22;2753;49.196;8.286;2023-12-07T06:32:42;1.60;99.90
5461;DHT22;2753;49.196;8.286;2023-12-07T06:35:09;1.60;99.90
5461;DHT22;2753;49.196;8.286;2023-12-07T06:37:37;1.60;99.90
5461;DHT22;2753;49.196;8.286;2023-12-07T06:40:03;1.60;99.90
5461;DHT22;2753;49.196;8.286;2023-12-07T06:42:30;1.60;99.90
5461;DHT22;2753;49.196;8.286;2023-12-07T06:44:55;1.60;99.90
5461;DHT22;2753;49.196;8.286;2023-12-07T06:47:21;1.50;99.90
5461;DHT22;2753;49.196;8.286;2023-12-07T06:49:47;1.50;99.90
5461;DHT22;2753;49.196;8.286;2023-12-07T06:52:12;1.50;99.90
5461;DHT22;2753;49.196;8.286;2023-12-07T06:54:38;1.50;99.90
5461;DHT22;2753;49.196;8.286;2023-12-07T06:57:04;1.40;99.90
5461;DHT22;2753;49.196;8.286;2023-12-07T06:59:35;1.50;99.90
5461;DHT22;2753;49.196;8.286;2023-12-07T07:02:01;1.50;99.90
5461;DHT22;2753;49.196;8.286;2023-12-07T07:04:27;1.50;99.90
5461;DHT22;2753;49.196;8.286;2023-12-07T07:06:53;1.40;99.90
5461;DHT22;2753;49.196;8.286;2023-12-07T07:09:18;1.40;99.90
5461;DHT22;2753;49.196;8.286;2023-12-07T07:11:48;1.40;99.90
5461;DHT22;2753;49.196;8.286;2023-12-07T07:14:14;1.40;99.90
5461;DHT22;2753;49.196;8.286;2023-12-07T07:16:39;1.40;99.90
5461;DHT22;2753;49.196;8.286;2023-12-07T07:19:05;1.40;99.90
5461;DHT22;2753;49.196;8.286;2023-12-07T07:21:31;1.50;99.90
5461;DHT22;2753;49.196;8.286;2023-12-07T07:23:57;1.40;99.90
5461;DHT22;2753;49.196;8.286;2023-12-07T07:26:23;1.40;99.90
5461;DHT22;2753;49.196;8.286;2023-12-07T07:28:51;1.30;99.90
5461;DHT22;2753;49.196;8.286;2023-12-07T07:31:16;1.30;99.90
5461;DHT22;2753;49.196;8.286;2023-12-07T07:33:43;1.30;99.90
5461;DHT22;2753;49.196;8.286;2023-12-07T07:36:09;1.30;99.90
5461;DHT22;2753;49.196;8.286;2023-12-07T07:38:36;1.30;99.90
5461;DHT22;2753;49.196;8.286;2023-12-07T07:41:02;1.30;99.90
5461;DHT22;2753;49.196;8.286;2023-12-07T07:43:28;1.20;99.90
5461;DHT22;2753;49.196;8.286;2023-12-07T07:45:53;1.20;99.90
5461;DHT22;2753;49.196;8.286;2023-12-07T07:48:19;1.30;99.90
5461;DHT22;2753;49.196;8.286;2023-12-07T07:50:45;1.30;99.90
5461;DHT22;2753;49.196;8.286;2023-12-07T07:53:11;1.30;99.90
5461;DHT22;2753;49.196;8.286;2023-12-07T07:55:36;1.30;99.90
5461;DHT22;2753;49.196;8.286;2023-12-07T07:58:02;1.30;99.90
5461;DHT22;2753;49.196;8.286;2023-12-07T08:00:28;1.20;99.90
5461;DHT22;2753;49.196;8.286;2023-12-07T08:02:53;1.10;99.90
5461;DHT22;2753;49.196;8.286;2023-12-07T08:05:19;1.00;99.90
5461;DHT22;2753;49.196;8.286;2023-12-07T08:07:45;1.00;99.90
5461;DHT22;2753;49.196;8.286;2023-12-07T08:10:10;1.00;99.90
5461;DHT22;2753;49.196;8.286;2023-12-07T08:12:36;1.00;99.90
5461;DHT22;2753;49.196;8.286;2023-12-07T08:15:04;1.00;99.90
5461;DHT22;2753;49.196;8.286;2023-12-07T08:17:30;1.00;99.90
5461;DHT22;2753;49.196;8.286;2023-12-07T08:19:56;1.00;99.90
5461;DHT22;2753;49.196;8.286;2023-12-07T08:22:24;1.10;99.90
5461;DHT22;2753;49.196;8.286;2023-12-07T08:24:56;1.10;99.90
5461;DHT22;2753;49.196;8.286;2023-12-07T08:27:22;1.10;99.90
5461;DHT22;2753;49.196;8.286;2023-12-07T08:29:47;1.00;99.90
5461;DHT22;2753;49.196;8.286;2023-12-07T08:32:13;1.00;99.90
5461;DHT22;2753;49.196;8.286;2023-12-07T08:34:41;1.10;99.90
5461;DHT22;2753;49.196;8.286;2023-12-07T08:37:06;1.00;99.90
5461;DHT22;2753;49.196;8.286;2023-12-07T08:39:32;1.00;99.90
5461;DHT22;2753;49.196;8.286;2023-12-07T08:41:57;1.00;99.90
5461;DHT22;2753;49.196;8.286;2023-12-07T08:44:23;1.00;99.90
5461;DHT22;2753;49.196;8.286;2023-12-07T08:46:49;0.90;99.90
5461;DHT22;2753;49.196;8.286;2023-12-07T08:49:14;1.00;99.90
5461;DHT22;2753;49.196;8.286;2023-12-07T08:51:40;1.00;99.90
5461;DHT22;2753;49.196;8.286;2023-12-07T08:54:06;0.90;99.90
5461;DHT22;2753;49.196;8.286;2023-12-07T08:56:33;0.90;99.90
5461;DHT22;2753;49.196;8.286;2023-12-07T08:58:59;0.90;99.90
5461;DHT22;2753;49.196;8.286;2023-12-07T09:01:28;0.90;99.90
5461;DHT22;2753;49.196;8.286;2023-12-07T09:03:55;1.00;99.90
5461;DHT22;2753;49.196;8.286;2023-12-07T09:06:21;1.00;99.90
5461;DHT22;2753;49.196;8.286;2023-12-07T09:08:47;1.10;99.90
5461;DHT22;2753;49.196;8.286;2023-12-07T09:11:12;1.20;99.90
5461;DHT22;2753;49.196;8.286;2023-12-07T09:13:38;1.20;99.90
5461;DHT22;2753;49.196;8.286;2023-12-07T09:16:04;1.20;99.90
5461;DHT22;2753;49.196;8.286;2023-12-07T09:18:30;1.20;99.90
5461;DHT22;2753;49.196;8.286;2023-12-07T09:20:56;1.30;99.90
5461;DHT22;2753;49.196;8.286;2023-12-07T09:23:21;1.30;99.90
5461;DHT22;2753;49.196;8.286;2023-12-07T09:25:47;1.40;99.90
5461;DHT22;2753;49.196;8.286;2023-12-07T09:28:13;1.40;99.90
5461;DHT22;2753;49.196;8.286;2023-12-07T09:30:39;1.40;99.90
5461;DHT22;2753;49.196;8.286;2023-12-07T09:33:04;1.40;99.90
5461;DHT22;2753;49.196;8.286;2023-12-07T09:35:30;1.50;99.90
5461;DHT22;2753;49.196;8.286;2023-12-07T09:37:56;1.50;99.90
5461;DHT22;2753;49.196;8.286;2023-12-07T09:40:22;1.50;99.90
5461;DHT22;2753;49.196;8.286;2023-12-07T09:42:50;1.50;99.90
5461;DHT22;2753;49.196;8.286;2023-12-07T09:45:17;1.60;99.90
5461;DHT22;2753;49.196;8.286;2023-12-07T09:47:52;1.60;99.90
5461;DHT22;2753;49.196;8.286;2023-12-07T09:50:19;1.60;99.90
5461;DHT22;2753;49.196;8.286;2023-12-07T09:52:49;1.60;99.90
5461;DHT22;2753;49.196;8.286;2023-12-07T09:55:19;1.60;99.90
5461;DHT22;2753;49.196;8.286;2023-12-07T09:57:49;1.70;99.90
5461;DHT22;2753;49.196;8.286;2023-12-07T10:00:15;1.60;99.90
5461;DHT22;2753;49.196;8.286;2023-12-07T10:02:42;1.70;99.90
5461;DHT22;2753;49.196;8.286;2023-12-07T10:05:10;1.70;99.90
5461;DHT22;2753;49.196;8.286;2023-12-07T10:07:39;1.70;99.90
5461;DHT22;2753;49.196;8.286;2023-12-07T10:10:05;1.70;99.90
5461;DHT22;2753;49.196;8.286;2023-12-07T10:12:33;1.70;99.90
5461;DHT22;2753;49.196;8.286;2023-12-07T10:15:15;1.70;99.90
5461;DHT22;2753;49.196;8.286;2023-12-07T10:17:55;1.70;99.90
5461;DHT22;2753;49.196;8.286;2023-12-07T10:20:24;1.80;99.90
5461;DHT22;2753;49.196;8.286;2023-12-07T10:23:04;1.80;99.90
5461;DHT22;2753;49.196;8.286;2023-12-07T10:25:31;1.80;99.90
5461;DHT22;2753;49.196;8.286;2023-12-07T10:27:57;1.80;99.90
5461;DHT22;2753;49.196;8.286;2023-12-07T10:30:23;1.80;99.90
5461;DHT22;2753;49.196;8.286;2023-12-07T10:32:52;1.80;99.90
5461;DHT22;2753;49.196;8.286;2023-12-07T10:35:21;1.90;99.90
5461;DHT22;2753;49.196;8.286;2023-12-07T10:37:47;1.90;99.90
5461;DHT22;2753;49.196;8.286;2023-12-07T10:40:13;1.90;99.90
5461;DHT22;2753;49.196;8.286;2023-12-07T10:42:41;2.00;99.90
5461;DHT22;2753;49.196;8.286;2023-12-07T10:45:07;2.00;99.90
5461;DHT22;2753;49.196;8.286;2023-12-07T10:47:37;2.00;99.90
5461;DHT22;2753;49.196;8.286;2023-12-07T10:50:07;2.00;99.90
5461;DHT22;2753;49.196;8.286;2023-12-07T10:52:37;2.00;99.90
5461;DHT22;2753;49.196;8.286;2023-12-07T10:55:12;2.00;99.90
5461;DHT22;2753;49.196;8.286;2023-12-07T10:57:38;2.10;99.90
5461;DHT22;2753;49.196;8.286;2023-12-07T11:00:07;2.10;99.90
5461;DHT22;2753;49.196;8.286;2023-12-07T11:02:34;2.10;99.90
5461;DHT22;2753;49.196;8.286;2023-12-07T11:05:01;2.10;99.90
5461;DHT22;2753;49.196;8.286;2023-12-07T11:07:47;2.20;99.90
5461;DHT22;2753;49.196;8.286;2023-12-07T11:10:23;2.20;99.90
5461;DHT22;2753;49.196;8.286;2023-12-07T11:13:11;2.20;99.90
5461;DHT22;2753;49.196;8.286;2023-12-07T11:15:38;2.20;99.90
5461;DHT22;2753;49.196;8.286;2023-12-07T11:18:05;2.20;99.90
5461;DHT22;2753;49.196;8.286;2023-12-07T11:20:43;2.30;99.90
5461;DHT22;2753;49.196;8.286;2023-12-07T11:23:18;2.90;99.90
5461;DHT22;2753;49.196;8.286;2023-12-07T11:25:46;2.40;99.90
5461;DHT22;2753;49.196;8.286;2023-12-07T11:28:13;2.40;99.90
5461;DHT22;2753;49.196;8.286;2023-12-07T11:30:43;2.40;99.90
5461;DHT22;2753;49.196;8.286;2023-12-07T11:33:10;2.40;99.90
5461;DHT22;2753;49.196;8.286;2023-12-07T11:36:03;2.50;99.90
5461;DHT22;2753;49.196;8.286;2023-12-07T11:38:31;2.50;99.90
5461;DHT22;2753;49.196;8.286;2023-12-07T11:40:57;2.50;99.90
5461;DHT22;2753;49.196;8.286;2023-12-07T11:46:04;2.50;99.90
5461;DHT22;2753;49.196;8.286;2023-12-07T11:48:30;2.50;99.90
5461;DHT22;2753;49.196;8.286;2023-12-07T11:51:07;2.60;99.90
5461;DHT22;2753;49.196;8.286;2023-12-07T11:53:35;2.60;99.90
5461;DHT22;2753;49.196;8.286;2023-12-07T11:56:03;2.60;99.90
5461;DHT22;2753;49.196;8.286;2023-12-07T11:58:36;2.60;99.90
5461;DHT22;2753;49.196;8.286;2023-12-07T12:01:03;2.70;99.90
5461;DHT22;2753;49.196;8.286;2023-12-07T12:03:31;2.80;99.90
5461;DHT22;2753;49.196;8.286;2023-12-07T12:06:02;2.90;99.90
5461;DHT22;2753;49.196;8.286;2023-12-07T12:08:29;3.00;99.90
5461;DHT22;2753;49.196;8.286;2023-12-07T12:10:55;3.00;99.90
5461;DHT22;2753;49.196;8.286;2023-12-07T12:13:29;3.00;99.90
5461;DHT22;2753;49.196;8.286;2023-12-07T12:15:59;3.00;99.90
5461;DHT22;2753;49.196;8.286;2023-12-07T12:18:26;3.00;99.90
5461;DHT22;2753;49.196;8.286;2023-12-07T12:20:53;3.10;99.90
5461;DHT22;2753;49.196;8.286;2023-12-07T12:23:20;3.10;99.90
5461;DHT22;2753;49.196;8.286;2023-12-07T12:25:48;3.20;99.90
5461;DHT22;2753;49.196;8.286;2023-12-07T12:28:18;3.20;99.90
5461;DHT22;2753;49.196;8.286;2023-12-07T12:30:47;3.30;99.90
5461;DHT22;2753;49.196;8.286;2023-12-07T12:33:13;3.50;99.90
5461;DHT22;2753;49.196;8.286;2023-12-07T12:35:40;3.70;99.90
5461;DHT22;2753;49.196;8.286;2023-12-07T12:38:11;3.80;99.90
5461;DHT22;2753;49.196;8.286;2023-12-07T12:40:37;4.00;99.90
5461;DHT22;2753;49.196;8.286;2023-12-07T12:43:04;4.10;99.90
5461;DHT22;2753;49.196;8.286;2023-12-07T12:45:30;4.20;99.90
5461;DHT22;2753;49.196;8.286;2023-12-07T12:47:58;4.20;99.90
5461;DHT22;2753;49.196;8.286;2023-12-07T12:50:41;4.20;99.90
5461;DHT22;2753;49.196;8.286;2023-12-07T12:53:10;4.30;99.90
5461;DHT22;2753;49.196;8.286;2023-12-07T12:55:37;4.30;99.90
5461;DHT22;2753;49.196;8.286;2023-12-07T12:58:05;4.50;99.90
5461;DHT22;2753;49.196;8.286;2023-12-07T13:00:33;4.50;99.90
5461;DHT22;2753;49.196;8.286;2023-12-07T13:03:03;4.60;99.90
5461;DHT22;2753;49.196;8.286;2023-12-07T13:05:33;4.70;99.90
5461;DHT22;2753;49.196;8.286;2023-12-07T13:08:00;4.80;99.90
5461;DHT22;2753;49.196;8.286;2023-12-07T13:10:26;4.80;99.90
5461;DHT22;2753;49.196;8.286;2023-12-07T13:12:52;4.80;99.90
5461;DHT22;2753;49.196;8.286;2023-12-07T13:15:18;4.80;99.90
5461;DHT22;2753;49.196;8.286;2023-12-07T13:17:50;4.80;99.90
5461;DHT22;2753;49.196;8.286;2023-12-07T13:20:18;4.80;99.90
5461;DHT22;2753;49.196;8.286;2023-12-07T13:22:46;4.70;99.90
5461;DHT22;2753;49.196;8.286;2023-12-07T13:25:15;4.70;99.90
5461;DHT22;2753;49.196;8.286;2023-12-07T13:27:41;4.70;99.90
5461;DHT22;2753;49.196;8.286;2023-12-07T13:30:11;4.70;99.90
5461;DHT22;2753;49.196;8.286;2023-12-07T13:32:38;4.60;99.90
5461;DHT22;2753;49.196;8.286;2023-12-07T13:35:05;4.50;99.90
5461;DHT22;2753;49.196;8.286;2023-12-07T13:37:31;4.50;99.90
5461;DHT22;2753;49.196;8.286;2023-12-07T13:39:58;4.50;99.90
5461;DHT22;2753;49.196;8.286;2023-12-07T13:49:10;4.40;99.90
5461;DHT22;2753;49.196;8.286;2023-12-07T13:51:37;4.40;99.90
5461;DHT22;2753;49.196;8.286;2023-12-07T13:54:03;4.30;99.90
5461;DHT22;2753;49.196;8.286;2023-12-07T13:56:29;4.30;99.90
5461;DHT22;2753;49.196;8.286;2023-12-07T13:58:55;4.20;99.90
5461;DHT22;2753;49.196;8.286;2023-12-07T14:01:20;4.20;99.90
5461;DHT22;2753;49.196;8.286;2023-12-07T14:03:47;4.10;99.90
5461;DHT22;2753;49.196;8.286;2023-12-07T14:06:22;4.00;99.90
5461;DHT22;2753;49.196;8.286;2023-12-07T14:08:49;3.90;99.90
5461;DHT22;2753;49.196;8.286;2023-12-07T14:11:14;4.00;99.90
5461;DHT22;2753;49.196;8.286;2023-12-07T14:13:40;3.90;99.90
5461;DHT22;2753;49.196;8.286;2023-12-07T14:16:06;3.90;99.90
5461;DHT22;2753;49.196;8.286;2023-12-07T14:18:34;3.90;99.90
5461;DHT22;2753;49.196;8.286;2023-12-07T14:21:00;3.80;99.90
5461;DHT22;2753;49.196;8.286;2023-12-07T14:23:26;3.80;99.90
5461;DHT22;2753;49.196;8.286;2023-12-07T14:25:52;3.80;99.90
5461;DHT22;2753;49.196;8.286;2023-12-07T14:28:17;3.80;99.90
5461;DHT22;2753;49.196;8.286;2023-12-07T14:30:44;3.70;99.90
5461;DHT22;2753;49.196;8.286;2023-12-07T14:33:10;3.70;99.90
5461;DHT22;2753;49.196;8.286;2023-12-07T14:35:35;3.70;99.90
5461;DHT22;2753;49.196;8.286;2023-12-07T14:38:01;3.60;99.90
5461;DHT22;2753;49.196;8.286;2023-12-07T14:40:27;3.60;99.90
5461;DHT22;2753;49.196;8.286;2023-12-07T14:42:53;3.60;99.90
5461;DHT22;2753;49.196;8.286;2023-12-07T14:45:22;3.60;99.90
5461;DHT22;2753;49.196;8.286;2023-12-07T14:47:47;3.60;99.90
5461;DHT22;2753;49.196;8.286;2023-12-07T14:50:14;3.50;99.90
5461;DHT22;2753;49.196;8.286;2023-12-07T14:52:40;3.50;99.90
5461;DHT22;2753;49.196;8.286;2023-12-07T14:55:06;3.50;99.90
5461;DHT22;2753;49.196;8.286;2023-12-07T14:57:32;3.50;99.90
5461;DHT22;2753;49.196;8.286;2023-12-07T14:59:57;3.40;99.90
5461;DHT22;2753;49.196;8.286;2023-12-07T15:02:24;3.40;99.90
5461;DHT22;2753;49.196;8.286;2023-12-07T15:04:50;3.40;99.90
5461;DHT22;2753;49.196;8.286;2023-12-07T15:07:16;3.40;99.90
5461;DHT22;2753;49.196;8.286;2023-12-07T15:09:42;3.40;99.90
5461;DHT22;2753;49.196;8.286;2023-12-07T15:12:08;3.40;99.90
5461;DHT22;2753;49.196;8.286;2023-12-07T15:14:33;3.30;99.90
5461;DHT22;2753;49.196;8.286;2023-12-07T15:16:59;3.30;99.90
5461;DHT22;2753;49.196;8.286;2023-12-07T15:19:25;3.20;99.90
5461;DHT22;2753;49.196;8.286;2023-12-07T15:21:51;3.20;99.90
5461;DHT22;2753;49.196;8.286;2023-12-07T15:24:17;3.20;99.90
5461;DHT22;2753;49.196;8.286;2023-12-07T15:26:43;3.20;99.90
5461;DHT22;2753;49.196;8.286;2023-12-07T15:29:09;3.20;99.90
5461;DHT22;2753;49.196;8.286;2023-12-07T15:31:35;3.20;99.90
5461;DHT22;2753;49.196;8.286;2023-12-07T15:34:01;3.10;99.90
5461;DHT22;2753;49.196;8.286;2023-12-07T15:36:26;3.20;99.90
5461;DHT22;2753;49.196;8.286;2023-12-07T15:38:52;3.10;99.90
5461;DHT22;2753;49.196;8.286;2023-12-07T15:41:18;3.10;99.90
5461;DHT22;2753;49.196;8.286;2023-12-07T15:43:44;3.10;99.90
5461;DHT22;2753;49.196;8.286;2023-12-07T15:46:10;3.10;99.90
5461;DHT22;2753;49.196;8.286;2023-12-07T15:48:36;3.10;99.90
5461;DHT22;2753;49.196;8.286;2023-12-07T15:51:02;3.10;99.90
5461;DHT22;2753;49.196;8.286;2023-12-07T15:53:27;3.00;99.90
5461;DHT22;2753;49.196;8.286;2023-12-07T15:55:54;3.00;99.90
5461;DHT22;2753;49.196;8.286;2023-12-07T15:58:19;3.00;99.90
5461;DHT22;2753;49.196;8.286;2023-12-07T16:00:45;3.00;99.90
5461;DHT22;2753;49.196;8.286;2023-12-07T16:03:11;3.00;99.90
5461;DHT22;2753;49.196;8.286;2023-12-07T16:05:37;3.00;99.90
5461;DHT22;2753;49.196;8.286;2023-12-07T16:08:02;3.00;99.90
5461;DHT22;2753;49.196;8.286;2023-12-07T16:10:28;2.90;99.90
5461;DHT22;2753;49.196;8.286;2023-12-07T16:12:54;2.90;99.90
5461;DHT22;2753;49.196;8.286;2023-12-07T16:15:20;2.90;99.90
5461;DHT22;2753;49.196;8.286;2023-12-07T16:17:45;2.90;99.90
5461;DHT22;2753;49.196;8.286;2023-12-07T16:20:11;2.90;99.90
5461;DHT22;2753;49.196;8.286;2023-12-07T16:22:41;2.90;99.90
5461;DHT22;2753;49.196;8.286;2023-12-07T16:25:06;2.90;99.90
5461;DHT22;2753;49.196;8.286;2023-12-07T16:27:32;2.90;99.90
5461;DHT22;2753;49.196;8.286;2023-12-07T16:29:58;2.90;99.90